Overseas Boston — WJBU — position and weather

sailwx.info

Track history (hours):
 
Tides and Currents Weather Stations Pressure Air Temp Water Temp Dewpoint Dewpoint Depression Visibility Wind Speed Wind Dir Waves Ship Positions

Overseas Boston

More information available from US FCC via Universal Licensing System and Coast Guard Vessel Documentation Center.

Last reported at 2014-Sep-02 04:32 UTC. Time now 2014-Sep-03 02:09 UTC.
Position N 33°46' W 118°13'.

Length 183 m; draft 10.8 m.

Type: Tanker. MMSI: 338221000.

Date/timePositionNaut miles runAvg speedWind from/ knotsBaromVisibWave heightAir tempDewpointWater temp
2014-Sep-02 04:32N 33°46' W 118°13'0 0.1
2014-Sep-01 22:22N 33°46' W 118°13'0 0.0
2014-Aug-31 11:16N 33°46' W 118°13'0 0.0
2014-Aug-31 09:28N 33°46' W 118°13'0 0.0
2014-Aug-30 21:19N 33°46' W 118°13'0 0.0
2014-Aug-30 20:31N 33°46' W 118°13'0 0.0
2014-Aug-30 19:28N 33°46' W 118°13'0 0.0
2014-Aug-30 10:08N 33°46' W 118°13'0 0.3
2014-Aug-30 09:33N 33°46' W 118°13'2 2.0
2014-Aug-30 08:33N 33°44' W 118°13'6 5.7
2014-Aug-30 07:33N 33°39' W 118°12'7 6.9
2014-Aug-30 06:33N 33°36' W 118°19'1 2.0
2014-Aug-30 06:00N 33°36' W 118°18'817.4 260 / 101009.810.8 0.519.418.6
2014-Aug-30 05:33N 33°36' W 118°27'6 6.4
2014-Aug-30 04:33N 33°36' W 118°35'6 6.4
2014-Aug-30 03:33N 33°36' W 118°43'1 1.1
2014-Aug-30 03:00N 33°36' W 118°42'716.5 260 / 131009.410.8 1.020.619.7
2014-Aug-30 02:33N 33°37' W 118°51'7 6.8
2014-Aug-30 01:33N 33°38' W 118°59'7 6.7
2014-Aug-30 00:33N 33°38' W 119°07'610.3
2014-Aug-30 00:00N 33°36' W 119°00'1227.2 290 / 201009.710.8 20.020.0
2014-Aug-29 23:33N 33°37' W 119°14'7 6.7
2014-Aug-29 22:32N 33°36' W 119°22'6 6.6
2014-Aug-29 21:33N 33°34' W 119°30'711.8
2014-Aug-29 21:00N 33°30' W 119°24'1227.7 050 / 211011.410.8 18.918.0
2014-Aug-29 20:33N 33°33' W 119°38'1514.7
2014-Aug-29 19:34N 33°31' W 119°55'1514.6
2014-Aug-29 18:33N 33°28' W 120°13'4 7.5
2014-Aug-29 18:00N 33°24' W 120°12'1431.5
2014-Aug-29 17:33N 33°26' W 120°28'1212.0
2014-Aug-29 16:34N 33°28' W 120°42'1413.7
2014-Aug-29 15:34N 33°37' W 120°55'1615.2
2014-Aug-29 14:30N 33°47' W 121°09'1415.0
2014-Aug-29 13:33N 33°56' W 121°22'3515.1
2014-Aug-29 11:15N 34°19' W 121°54'1115.2
2014-Aug-29 10:33N 34°26' W 122°04'1515.0
2014-Aug-29 09:33N 34°36' W 122°18'1515.1
2014-Aug-29 08:32N 34°46' W 122°32'1515.0
2014-Aug-29 07:33N 34°56' W 122°45'1615.3
2014-Aug-29 06:29N 35°06' W 123°00'1414.8
2014-Aug-29 05:33N 35°15' W 123°13'1514.5
2014-Aug-29 04:33N 35°27' W 123°24'1515.4
2014-Aug-29 03:33N 35°41' W 123°32'713.0
2014-Aug-29 03:00N 35°48' W 123°30'1024.1 020 / 131017.310.8 1.016.116.1
2014-Aug-29 02:33N 35°55' W 123°40'1515.4
2014-Aug-29 01:33N 36°09' W 123°48'1515.0
2014-Aug-29 00:33N 36°22' W 123°56'813.6
2014-Aug-29 00:00N 36°30' W 123°54'1021.3 360 / 101017.210.8 17.816.1
2014-Aug-28 23:30N 36°37' W 124°04'1415.1
2014-Aug-28 22:33N 36°50' W 124°12'1515.1
2014-Aug-28 21:33N 37°03' W 124°19'1815.4
2014-Aug-28 20:25N 37°19' W 124°28'1415.2
2014-Aug-28 19:30N 37°32' W 124°36'1515.0
2014-Aug-28 18:31N 37°46' W 124°44'2914.6
2014-Aug-28 16:33N 38°12' W 124°59'1414.2
2014-Aug-28 15:33N 38°24' W 125°06'14615.3
2014-Aug-28 06:00N 40°48' W 125°42'9015.1 360 / 161020.1 0.517.216.4
2014-Aug-28 00:00N 42°18' W 125°54'4214.0 020 / 121019.210.8 18.316.6
2014-Aug-27 21:00N 43°00' W 125°54'4816.0 030 / 141019.710.8 18.317.5
2014-Aug-27 18:00N 43°48' W 125°54'9616.0 010 / 161020.010.8 0.518.917.2
2014-Aug-27 12:00N 45°24' W 125°54'17815.5 330 / 131019.4 17.217.2
2014-Aug-27 00:33N 48°21' W 125°43'1322.6
2014-Aug-27 00:00N 48°24' W 125°24'715.3 300 / 121016.9 0.1 15.615.6
2014-Aug-26 23:33N 48°30' W 125°26'1514.5
2014-Aug-26 22:32N 48°30' W 125°04'1414.5
2014-Aug-26 21:33N 48°30' W 124°42'1514.9
2014-Aug-26 20:33N 48°25' W 124°22'1515.1
2014-Aug-26 19:33N 48°19' W 124°01'1716.6
2014-Aug-26 18:33N 48°16' W 123°36'1212.4
2014-Aug-26 17:33N 48°10' W 123°19'1514.7
2014-Aug-26 16:33N 48°19' W 123°02'1412.7
2014-Aug-26 15:25N 48°28' W 122°45'7 8.0
2014-Aug-26 14:33N 48°32' W 122°36'2 1.5
2014-Aug-26 13:30N 48°31' W 122°34'0 0.0
2014-Aug-26 12:30N 48°31' W 122°34'0 0.0
2014-Aug-26 11:30N 48°31' W 122°34'0 0.0
2014-Aug-26 10:30N 48°31' W 122°34'0 0.0
2014-Aug-26 09:30N 48°31' W 122°34'0 0.0
2014-Aug-26 08:30N 48°31' W 122°34'0 0.0
2014-Aug-26 07:30N 48°31' W 122°34'0 0.0
2014-Aug-26 06:30N 48°31' W 122°34'0 0.0
2014-Aug-26 05:30N 48°31' W 122°34'0 0.0
2014-Aug-26 04:30N 48°31' W 122°34'0 0.0
2014-Aug-26 03:30N 48°31' W 122°34'0 0.0
2014-Aug-26 02:30N 48°31' W 122°34'0 0.0
2014-Aug-26 01:30N 48°31' W 122°34'0 0.0
2014-Aug-26 00:30N 48°31' W 122°34'0 0.0
2014-Aug-25 23:24N 48°31' W 122°34'0 0.0
2014-Aug-25 22:30N 48°31' W 122°34'0 0.0
2014-Aug-25 21:30N 48°31' W 122°34'0 0.0
2014-Aug-25 20:30N 48°31' W 122°34'0 0.0
2014-Aug-25 19:30N 48°31' W 122°34'0 0.0
2014-Aug-25 18:30N 48°31' W 122°34'0 0.0
2014-Aug-25 17:24N 48°31' W 122°34'0 0.0
2014-Aug-25 16:30N 48°31' W 122°34'0 0.0
2014-Aug-25 15:30N 48°31' W 122°34'0 0.0
2014-Aug-25 14:30N 48°31' W 122°34'0 0.0
2014-Aug-25 13:30N 48°31' W 122°34'0 0.1
2014-Aug-25 12:33N 48°31' W 122°34'4 4.0
2014-Aug-25 11:33N 48°31' W 122°40'1110.2
2014-Aug-25 10:31N 48°23' W 122°50'1313.3
2014-Aug-25 09:33N 48°16' W 123°07'1312.7
2014-Aug-25 08:33N 48°10' W 123°23'8 8.3
2014-Aug-25 07:33N 48°13' W 123°35'1110.9
2014-Aug-25 06:33N 48°13' W 123°51'2 4.1
2014-Aug-25 06:00N 48°12' W 123°54'1124.2 300 / 91015.0 0.0 0.511.111.1
2014-Aug-25 05:33N 48°17' W 124°08'1212.0
2014-Aug-25 04:33N 48°22' W 124°24'1211.7
2014-Aug-25 03:33N 48°27' W 124°40'1111.3
2014-Aug-25 02:33N 48°28' W 124°57'1212.1
2014-Aug-25 01:33N 48°29' W 125°15'1312.2
2014-Aug-25 00:30N 48°29' W 125°35'1312.0
2014-Aug-24 23:26N 48°30' W 125°54'1011.7
2014-Aug-24 22:33N 48°29' W 126°09'1211.8
2014-Aug-24 21:33N 48°30' W 126°27'3810.6
2014-Aug-24 18:00N 48°30' W 127°24'8313.9 310 / 191016.210.8 1.017.816.1
2014-Aug-24 12:00N 49°06' W 129°18'8814.7 320 / 191020.5 16.715.7
2014-Aug-24 06:00N 49°54' W 131°12'4916.3 320 / 171023.010.8 1.012.810.9
2014-Aug-24 03:00N 50°24' W 132°12'5117.2 300 / 191022.410.8 1.016.714.9
2014-Aug-24 00:00N 50°54' W 133°18'12714.1 290 / 191023.210.8 2.017.214.6
2014-Aug-23 15:00N 52°06' W 136°06'4414.6 270 / 211023.010.8 15.615.6
2014-Aug-23 12:00N 52°30' W 137°06'9315.5 330 / 131022.8 15.614.6
2014-Aug-23 06:00N 53°24' W 139°12'   150 / 131021.9 5.4 0.512.810.9
Track history (hours):
 
Tides and Currents Weather Stations Pressure Air Temp Water Temp Dewpoint Dewpoint Depression Visibility Wind Speed Wind Dir Waves Ship Positions

Overseas Boston

More information available from US FCC via Universal Licensing System and Coast Guard Vessel Documentation Center.

Last reported at 2014-Sep-02 04:32 UTC. Time now 2014-Sep-03 02:09 UTC.
Position N 33°46' W 118°13'.

Length 183 m; draft 10.8 m.

Type: Tanker. MMSI: 338221000.

Date/timePositionNaut miles runAvg speedWind from/ knotsBaromVisibWave heightAir tempDewpointWater temp
2014-Sep-02 04:32N 33°46' W 118°13'0 0.1
2014-Sep-01 22:22N 33°46' W 118°13'0 0.0
2014-Aug-31 11:16N 33°46' W 118°13'0 0.0
2014-Aug-31 09:28N 33°46' W 118°13'0 0.0
2014-Aug-30 21:19N 33°46' W 118°13'0 0.0
2014-Aug-30 20:31N 33°46' W 118°13'0 0.0
2014-Aug-30 19:28N 33°46' W 118°13'0 0.0
2014-Aug-30 10:08N 33°46' W 118°13'0 0.3
2014-Aug-30 09:33N 33°46' W 118°13'2 2.0
2014-Aug-30 08:33N 33°44' W 118°13'6 5.7
2014-Aug-30 07:33N 33°39' W 118°12'7 6.9
2014-Aug-30 06:33N 33°36' W 118°19'1 2.0
2014-Aug-30 06:00N 33°36' W 118°18'817.4 260 / 101009.810.8 0.519.418.6
2014-Aug-30 05:33N 33°36' W 118°27'6 6.4
2014-Aug-30 04:33N 33°36' W 118°35'6 6.4
2014-Aug-30 03:33N 33°36' W 118°43'1 1.1
2014-Aug-30 03:00N 33°36' W 118°42'716.5 260 / 131009.410.8 1.020.619.7
2014-Aug-30 02:33N 33°37' W 118°51'7 6.8
2014-Aug-30 01:33N 33°38' W 118°59'7 6.7
2014-Aug-30 00:33N 33°38' W 119°07'610.3
2014-Aug-30 00:00N 33°36' W 119°00'1227.2 290 / 201009.710.8 20.020.0
2014-Aug-29 23:33N 33°37' W 119°14'7 6.7
2014-Aug-29 22:32N 33°36' W 119°22'6 6.6
2014-Aug-29 21:33N 33°34' W 119°30'711.8
2014-Aug-29 21:00N 33°30' W 119°24'1227.7 050 / 211011.410.8 18.918.0
2014-Aug-29 20:33N 33°33' W 119°38'1514.7
2014-Aug-29 19:34N 33°31' W 119°55'1514.6
2014-Aug-29 18:33N 33°28' W 120°13'4 7.5
2014-Aug-29 18:00N 33°24' W 120°12'1431.5
2014-Aug-29 17:33N 33°26' W 120°28'1212.0
2014-Aug-29 16:34N 33°28' W 120°42'1413.7
2014-Aug-29 15:34N 33°37' W 120°55'1615.2
2014-Aug-29 14:30N 33°47' W 121°09'1415.0
2014-Aug-29 13:33N 33°56' W 121°22'3515.1
2014-Aug-29 11:15N 34°19' W 121°54'1115.2
2014-Aug-29 10:33N 34°26' W 122°04'1515.0
2014-Aug-29 09:33N 34°36' W 122°18'1515.1
2014-Aug-29 08:32N 34°46' W 122°32'1515.0
2014-Aug-29 07:33N 34°56' W 122°45'1615.3
2014-Aug-29 06:29N 35°06' W 123°00'1414.8
2014-Aug-29 05:33N 35°15' W 123°13'1514.5
2014-Aug-29 04:33N 35°27' W 123°24'1515.4
2014-Aug-29 03:33N 35°41' W 123°32'713.0
2014-Aug-29 03:00N 35°48' W 123°30'1024.1 020 / 131017.310.8 1.016.116.1
2014-Aug-29 02:33N 35°55' W 123°40'1515.4
2014-Aug-29 01:33N 36°09' W 123°48'1515.0
2014-Aug-29 00:33N 36°22' W 123°56'813.6
2014-Aug-29 00:00N 36°30' W 123°54'1021.3 360 / 101017.210.8 17.816.1
2014-Aug-28 23:30N 36°37' W 124°04'1415.1
2014-Aug-28 22:33N 36°50' W 124°12'1515.1
2014-Aug-28 21:33N 37°03' W 124°19'1815.4
2014-Aug-28 20:25N 37°19' W 124°28'1415.2
2014-Aug-28 19:30N 37°32' W 124°36'1515.0
2014-Aug-28 18:31N 37°46' W 124°44'2914.6
2014-Aug-28 16:33N 38°12' W 124°59'1414.2
2014-Aug-28 15:33N 38°24' W 125°06'14615.3
2014-Aug-28 06:00N 40°48' W 125°42'9015.1 360 / 161020.1 0.517.216.4
2014-Aug-28 00:00N 42°18' W 125°54'4214.0 020 / 121019.210.8 18.316.6
2014-Aug-27 21:00N 43°00' W 125°54'4816.0 030 / 141019.710.8 18.317.5
2014-Aug-27 18:00N 43°48' W 125°54'9616.0 010 / 161020.010.8 0.518.917.2
2014-Aug-27 12:00N 45°24' W 125°54'17815.5 330 / 131019.4 17.217.2
2014-Aug-27 00:33N 48°21' W 125°43'1322.6
2014-Aug-27 00:00N 48°24' W 125°24'715.3 300 / 121016.9 0.1 15.615.6
2014-Aug-26 23:33N 48°30' W 125°26'1514.5
2014-Aug-26 22:32N 48°30' W 125°04'1414.5
2014-Aug-26 21:33N 48°30' W 124°42'1514.9
2014-Aug-26 20:33N 48°25' W 124°22'1515.1
2014-Aug-26 19:33N 48°19' W 124°01'1716.6
2014-Aug-26 18:33N 48°16' W 123°36'1212.4
2014-Aug-26 17:33N 48°10' W 123°19'1514.7
2014-Aug-26 16:33N 48°19' W 123°02'1412.7
2014-Aug-26 15:25N 48°28' W 122°45'7 8.0
2014-Aug-26 14:33N 48°32' W 122°36'2 1.5
2014-Aug-26 13:30N 48°31' W 122°34'0 0.0
2014-Aug-26 12:30N 48°31' W 122°34'0 0.0
2014-Aug-26 11:30N 48°31' W 122°34'0 0.0
2014-Aug-26 10:30N 48°31' W 122°34'0 0.0
2014-Aug-26 09:30N 48°31' W 122°34'0 0.0
2014-Aug-26 08:30N 48°31' W 122°34'0 0.0
2014-Aug-26 07:30N 48°31' W 122°34'0 0.0
2014-Aug-26 06:30N 48°31' W 122°34'0 0.0
2014-Aug-26 05:30N 48°31' W 122°34'0 0.0
2014-Aug-26 04:30N 48°31' W 122°34'0 0.0
2014-Aug-26 03:30N 48°31' W 122°34'0 0.0
2014-Aug-26 02:30N 48°31' W 122°34'0 0.0
2014-Aug-26 01:30N 48°31' W 122°34'0 0.0
2014-Aug-26 00:30N 48°31' W 122°34'0 0.0
2014-Aug-25 23:24N 48°31' W 122°34'0 0.0
2014-Aug-25 22:30N 48°31' W 122°34'0 0.0
2014-Aug-25 21:30N 48°31' W 122°34'0 0.0
2014-Aug-25 20:30N 48°31' W 122°34'0 0.0
2014-Aug-25 19:30N 48°31' W 122°34'0 0.0
2014-Aug-25 18:30N 48°31' W 122°34'0 0.0
2014-Aug-25 17:24N 48°31' W 122°34'0 0.0
2014-Aug-25 16:30N 48°31' W 122°34'0 0.0
2014-Aug-25 15:30N 48°31' W 122°34'0 0.0
2014-Aug-25 14:30N 48°31' W 122°34'0 0.0
2014-Aug-25 13:30N 48°31' W 122°34'0 0.1
2014-Aug-25 12:33N 48°31' W 122°34'4 4.0
2014-Aug-25 11:33N 48°31' W 122°40'1110.2
2014-Aug-25 10:31N 48°23' W 122°50'1313.3
2014-Aug-25 09:33N 48°16' W 123°07'1312.7
2014-Aug-25 08:33N 48°10' W 123°23'8 8.3
2014-Aug-25 07:33N 48°13' W 123°35'1110.9
2014-Aug-25 06:33N 48°13' W 123°51'2 4.1
2014-Aug-25 06:00N 48°12' W 123°54'1124.2 300 / 91015.0 0.0 0.511.111.1
2014-Aug-25 05:33N 48°17' W 124°08'1212.0
2014-Aug-25 04:33N 48°22' W 124°24'1211.7
2014-Aug-25 03:33N 48°27' W 124°40'1111.3
2014-Aug-25 02:33N 48°28' W 124°57'1212.1
2014-Aug-25 01:33N 48°29' W 125°15'1312.2
2014-Aug-25 00:30N 48°29' W 125°35'1312.0
2014-Aug-24 23:26N 48°30' W 125°54'1011.7
2014-Aug-24 22:33N 48°29' W 126°09'1211.8
2014-Aug-24 21:33N 48°30' W 126°27'3810.6
2014-Aug-24 18:00N 48°30' W 127°24'8313.9 310 / 191016.210.8 1.017.816.1
2014-Aug-24 12:00N 49°06' W 129°18'8814.7 320 / 191020.5 16.715.7
2014-Aug-24 06:00N 49°54' W 131°12'4916.3 320 / 171023.010.8 1.012.810.9
2014-Aug-24 03:00N 50°24' W 132°12'5117.2 300 / 191022.410.8 1.016.714.9
2014-Aug-24 00:00N 50°54' W 133°18'12714.1 290 / 191023.210.8 2.017.214.6
2014-Aug-23 15:00N 52°06' W 136°06'4414.6 270 / 211023.010.8 15.615.6
2014-Aug-23 12:00N 52°30' W 137°06'9315.5 330 / 131022.8 15.614.6
2014-Aug-23 06:00N 53°24' W 139°12'   150 / 131021.9 5.4 0.512.810.9

Dump ship's entire track history